Time;durP1;ratioP1;P1;durP2;ratioP2;P2;SDS_P1;SDS_P2;PMS_P1;PMS_P2;Temp;Humidity;BMP_temperature;BMP_pressure;BME280_temperature;BME280_humidity;BME280_pressure;Samples;Min_cycle;Max_cycle;Signal;HPM_P1;HPM_P2
2021/11/27 00:00:29;;;;;;;;;;;25.30;37.10;;;;;;5098907;28;20362;-81
2021/11/27 00:02:57;;;;;;;;;;;25.40;37.20;;;;;;5115438;28;19926;-83
2021/11/27 00:05:23;;;;;;;;;;;25.30;37.10;;;;;;5098314;28;19915;-81
2021/11/27 00:07:49;;;;;;;;;;;25.30;37.20;;;;;;5098188;28;20359;-81
2021/11/27 00:10:16;;;;;;;;;;;25.30;37.20;;;;;;5115427;28;19908;-81
2021/11/27 00:12:41;;;;;;;;;;;25.30;37.20;;;;;;5098144;28;19912;-81
2021/11/27 00:15:10;;;;;;;;;;;25.30;37.20;;;;;;5115202;28;19916;-80
2021/11/27 00:17:38;;;;;;;;;;;25.30;37.20;;;;;;5115036;28;19918;-81
2021/11/27 00:20:05;;;;;;;;;;;25.30;37.10;;;;;;5115126;28;20291;-80
2021/11/27 00:22:30;;;;;;;;;;;25.30;37.20;;;;;;5098081;28;19998;-80
2021/11/27 00:24:56;;;;;;;;;;;25.30;37.20;;;;;;5098003;28;19912;-83
2021/11/27 00:27:21;;;;;;;;;;;25.30;37.20;;;;;;5098099;28;20294;-81
2021/11/27 00:29:47;;;;;;;;;;;25.30;37.20;;;;;;5098662;28;20320;-82
2021/11/27 00:32:15;;;;;;;;;;;25.30;37.80;;;;;;5114822;28;20336;-83
2021/11/27 00:34:40;;;;;;;;;;;25.30;37.20;;;;;;5097954;28;19922;-81
2021/11/27 00:37:11;;;;;;;;;;;25.30;37.20;;;;;;5097712;28;20002;-81
2021/11/27 00:39:39;;;;;;;;;;;25.30;37.20;;;;;;5115000;28;19954;-78
2021/11/27 00:42:04;;;;;;;;;;;25.30;37.30;;;;;;5091413;28;19908;-81
2021/11/27 00:44:30;;;;;;;;;;;25.30;37.30;;;;;;5078258;28;20306;-82
2021/11/27 00:46:55;;;;;;;;;;;25.30;37.20;;;;;;5077917;28;20058;-80
2021/11/27 00:49:26;;;;;;;;;;;25.20;37.20;;;;;;5078126;28;19908;-80
2021/11/27 00:51:51;;;;;;;;;;;25.30;37.30;;;;;;5094536;28;19912;-83
2021/11/27 00:54:22;;;;;;;;;;;25.20;37.20;;;;;;5077500;28;19908;-82
2021/11/27 00:56:51;;;;;;;;;;;25.30;37.30;;;;;;5078244;28;19986;-84
2021/11/27 00:59:17;;;;;;;;;;;25.20;37.20;;;;;;5094344;28;20002;-81
2021/11/27 01:01:43;;;;;;;;;;;25.30;37.30;;;;;;5077689;28;19974;-82
2021/11/27 01:04:11;;;;;;;;;;;25.20;37.20;;;;;;5077408;28;19908;-80
2021/11/27 01:06:39;;;;;;;;;;;25.20;37.20;;;;;;5094291;28;19920;-79
2021/11/27 01:09:09;;;;;;;;;;;25.20;37.30;;;;;;5077591;28;20010;-81
2021/11/27 01:11:41;;;;;;;;;;;25.20;37.30;;;;;;5097821;28;19951;-82
2021/11/27 01:14:09;;;;;;;;;;;25.20;37.30;;;;;;5081963;28;19909;-81
2021/11/27 01:16:38;;;;;;;;;;;25.20;37.30;;;;;;5082136;28;19919;-81
2021/11/27 01:19:03;;;;;;;;;;;25.10;37.20;;;;;;5081912;28;19908;-81
2021/11/27 01:21:30;;;;;;;;;;;25.10;37.20;;;;;;5081146;28;19916;-81
2021/11/27 01:23:58;;;;;;;;;;;25.20;37.30;;;;;;5081671;28;20342;-81
2021/11/27 01:26:24;;;;;;;;;;;25.20;37.30;;;;;;5081394;28;19908;-80
2021/11/27 01:28:51;;;;;;;;;;;25.10;37.20;;;;;;5080946;28;19923;-80
2021/11/27 01:31:17;;;;;;;;;;;25.20;37.30;;;;;;5097925;28;19908;-82
2021/11/27 01:33:42;;;;;;;;;;;25.10;37.20;;;;;;5098089;28;19969;-81
2021/11/27 01:36:08;;;;;;;;;;;25.20;37.30;;;;;;5098144;28;19919;-79
2021/11/27 01:38:36;;;;;;;;;;;25.20;37.30;;;;;;5097799;28;19920;-80
2021/11/27 01:41:02;;;;;;;;;;;25.20;37.30;;;;;;5097729;28;19908;-82
2021/11/27 01:43:30;;;;;;;;;;;25.10;37.30;;;;;;5099354;28;19964;-83
2021/11/27 01:45:56;;;;;;;;;;;25.20;37.30;;;;;;5118393;28;19943;-81
2021/11/27 01:48:21;;;;;;;;;;;25.10;37.20;;;;;;5118576;28;19934;-81
2021/11/27 01:50:50;;;;;;;;;;;25.20;37.30;;;;;;5101430;28;19908;-81
2021/11/27 01:53:18;;;;;;;;;;;25.10;37.20;;;;;;5103715;28;19920;-82
2021/11/27 01:55:44;;;;;;;;;;;25.10;37.20;;;;;;5119938;28;20356;-79
2021/11/27 01:58:09;;;;;;;;;;;25.10;37.20;;;;;;5119576;28;19907;-81
2021/11/27 02:00:36;;;;;;;;;;;25.10;37.20;;;;;;5120326;28;19918;-79
2021/11/27 02:03:01;;;;;;;;;;;25.10;37.20;;;;;;5119213;28;20023;-82
2021/11/27 02:05:27;;;;;;;;;;;25.10;37.20;;;;;;5118059;28;19911;-82
2021/11/27 02:07:52;;;;;;;;;;;25.10;37.20;;;;;;5100520;28;20305;-81
2021/11/27 02:10:18;;;;;;;;;;;25.10;37.20;;;;;;5117529;28;19908;-80
2021/11/27 02:12:47;;;;;;;;;;;25.10;37.20;;;;;;5100297;28;19912;-82
2021/11/27 02:15:12;;;;;;;;;;;25.10;37.20;;;;;;5100358;28;19991;-80
2021/11/27 02:17:38;;;;;;;;;;;25.10;37.20;;;;;;5100780;28;19939;-81
2021/11/27 02:20:06;;;;;;;;;;;25.10;37.20;;;;;;5101246;28;19958;-81
2021/11/27 02:22:34;;;;;;;;;;;25.10;37.20;;;;;;5100262;28;19908;-84
2021/11/27 02:25:06;;;;;;;;;;;25.10;37.20;;;;;;5117635;28;19908;-81
2021/11/27 02:27:31;;;;;;;;;;;25.10;37.20;;;;;;5100683;28;19912;-80
2021/11/27 02:29:57;;;;;;;;;;;25.10;37.20;;;;;;5100285;28;19922;-81
2021/11/27 02:32:22;;;;;;;;;;;25.10;37.20;;;;;;5117812;28;19912;-82
2021/11/27 02:34:51;;;;;;;;;;;25.10;37.20;;;;;;5100005;28;20002;-80
2021/11/27 02:37:16;;;;;;;;;;;25.10;37.20;;;;;;5099759;28;20018;-80
2021/11/27 02:39:42;;;;;;;;;;;25.10;37.20;;;;;;5117176;28;19977;-80
2021/11/27 02:42:07;;;;;;;;;;;25.10;37.20;;;;;;5110380;28;20360;-80
2021/11/27 02:44:33;;;;;;;;;;;25.10;37.20;;;;;;5096465;28;19908;-79
2021/11/27 02:47:02;;;;;;;;;;;25.10;37.20;;;;;;5079623;28;20336;-80
2021/11/27 02:49:32;;;;;;;;;;;25.10;37.20;;;;;;5096491;28;19908;-80
2021/11/27 02:51:57;;;;;;;;;;;25.10;37.20;;;;;;5079561;28;20014;-83
2021/11/27 02:54:23;;;;;;;;;;;25.10;37.30;;;;;;5079315;28;20294;-85
2021/11/27 02:56:49;;;;;;;;;;;25.00;37.20;;;;;;5079442;28;19908;-83
2021/11/27 02:59:16;;;;;;;;;;;25.00;37.20;;;;;;5079358;28;19994;-81
2021/11/27 03:01:42;;;;;;;;;;;25.00;37.20;;;;;;5096296;28;20271;-80
2021/11/27 03:04:07;;;;;;;;;;;25.10;37.30;;;;;;5079409;28;19999;-82
2021/11/27 03:06:33;;;;;;;;;;;25.00;37.20;;;;;;5079038;28;20351;-85
2021/11/27 03:09:03;;;;;;;;;;;25.00;37.20;;;;;;5079118;28;19908;-82
2021/11/27 03:11:31;;;;;;;;;;;25.00;37.20;;;;;;5079209;28;19919;-84
2021/11/27 03:13:59;;;;;;;;;;;25.00;37.20;;;;;;5078968;28;19919;-83
2021/11/27 03:16:26;;;;;;;;;;;25.00;37.20;;;;;;5095822;28;19995;-83
2021/11/27 03:18:53;;;;;;;;;;;25.00;37.20;;;;;;5096543;28;19962;-84
2021/11/27 03:21:22;;;;;;;;;;;25.00;37.30;;;;;;5096133;28;19919;-80
2021/11/27 03:23:48;;;;;;;;;;;25.00;37.30;;;;;;5095707;28;19919;-84
2021/11/27 03:26:13;;;;;;;;;;;25.00;37.30;;;;;;5096014;28;19912;-81
2021/11/27 03:28:44;;;;;;;;;;;25.00;37.30;;;;;;5079284;28;19999;-81
2021/11/27 03:31:09;;;;;;;;;;;25.00;37.30;;;;;;5096033;28;19930;-81
2021/11/27 03:33:35;;;;;;;;;;;25.00;37.30;;;;;;5094840;28;20368;-81
2021/11/27 03:36:03;;;;;;;;;;;25.00;37.30;;;;;;5095669;28;20379;-82
2021/11/27 03:38:28;;;;;;;;;;;25.00;37.30;;;;;;5079056;28;19953;-81
2021/11/27 03:40:56;;;;;;;;;;;25.00;37.30;;;;;;5078643;28;20445;-81
2021/11/27 03:43:22;;;;;;;;;;;25.00;37.20;;;;;;5114555;28;19918;-83
2021/11/27 03:45:48;;;;;;;;;;;25.00;37.20;;;;;;5115876;28;19907;-80
2021/11/27 03:48:14;;;;;;;;;;;25.00;37.20;;;;;;5098728;28;19908;-79
2021/11/27 03:50:43;;;;;;;;;;;25.00;37.20;;;;;;5098698;28;19961;-83
2021/11/27 03:53:09;;;;;;;;;;;25.00;37.20;;;;;;5115370;28;19974;-81
2021/11/27 03:55:37;;;;;;;;;;;25.00;37.30;;;;;;5098930;28;19943;-84
2021/11/27 03:58:02;;;;;;;;;;;25.00;37.30;;;;;;5115526;28;19974;-81
2021/11/27 04:00:28;;;;;;;;;;;24.90;37.20;;;;;;5098626;28;19908;-79
2021/11/27 04:02:56;;;;;;;;;;;25.00;37.30;;;;;;5115443;28;19908;-82
2021/11/27 04:05:21;;;;;;;;;;;25.00;37.30;;;;;;5098936;28;20231;-81
2021/11/27 04:07:47;;;;;;;;;;;24.90;37.80;;;;;;5104596;28;19915;-80
2021/11/27 04:10:15;;;;;;;;;;;25.00;37.20;;;;;;5119713;28;19957;-83
2021/11/27 04:12:40;;;;;;;;;;;25.00;37.20;;;;;;5115260;28;19926;-80
2021/11/27 04:15:08;;;;;;;;;;;25.00;37.20;;;;;;5098065;28;19999;-79
2021/11/27 04:17:34;;;;;;;;;;;25.00;37.20;;;;;;5098678;28;19918;-82
2021/11/27 04:20:02;;;;;;;;;;;25.00;37.20;;;;;;5098568;28;20010;-80
2021/11/27 04:22:28;;;;;;;;;;;25.00;37.20;;;;;;5115426;28;19982;-83
2021/11/27 04:24:53;;;;;;;;;;;25.00;37.20;;;;;;5102403;28;19907;-79
2021/11/27 04:27:21;;;;;;;;;;;25.00;37.20;;;;;;5119025;28;19908;-82
2021/11/27 04:29:46;;;;;;;;;;;25.00;37.20;;;;;;5117467;28;19918;-80
2021/11/27 04:32:12;;;;;;;;;;;25.00;37.20;;;;;;5099648;28;19912;-82
2021/11/27 04:34:40;;;;;;;;;;;25.00;37.20;;;;;;5116111;28;19908;-81
2021/11/27 04:37:10;;;;;;;;;;;24.90;37.20;;;;;;5115610;28;19980;-81
2021/11/27 04:39:37;;;;;;;;;;;24.90;37.10;;;;;;5115301;28;20003;-80
2021/11/27 04:42:03;;;;;;;;;;;24.90;37.20;;;;;;5098078;28;19919;-81
2021/11/27 04:44:28;;;;;;;;;;;24.90;37.10;;;;;;5118719;28;19987;-80
2021/11/27 04:46:54;;;;;;;;;;;24.90;37.20;;;;;;5105813;28;19908;-83
2021/11/27 04:49:24;;;;;;;;;;;24.90;37.10;;;;;;5123217;28;19918;-81
2021/11/27 04:51:50;;;;;;;;;;;24.90;37.10;;;;;;5122292;28;19915;-83
2021/11/27 04:54:18;;;;;;;;;;;24.90;37.10;;;;;;5107888;28;19918;-83
2021/11/27 04:56:43;;;;;;;;;;;24.90;37.20;;;;;;5132632;28;19908;-81
2021/11/27 04:59:11;;;;;;;;;;;24.90;37.10;;;;;;5115626;28;19908;-84
2021/11/27 05:01:36;;;;;;;;;;;24.90;37.10;;;;;;5107207;28;20388;-83
2021/11/27 05:04:02;;;;;;;;;;;24.90;37.10;;;;;;5121712;28;19947;-81
2021/11/27 05:06:28;;;;;;;;;;;24.90;37.10;;;;;;5104359;28;19935;-84
2021/11/27 05:08:53;;;;;;;;;;;24.80;37.10;;;;;;5121933;28;19908;-79
2021/11/27 05:11:19;;;;;;;;;;;24.90;37.20;;;;;;5121594;28;19908;-81
2021/11/27 05:13:44;;;;;;;;;;;24.80;37.20;;;;;;5121380;28;19908;-81
2021/11/27 05:16:10;;;;;;;;;;;24.80;37.20;;;;;;5121593;28;19911;-80
2021/11/27 05:18:38;;;;;;;;;;;24.80;37.20;;;;;;5121301;28;20256;-82
2021/11/27 05:21:06;;;;;;;;;;;24.80;37.20;;;;;;5104779;28;19912;-82
2021/11/27 05:23:32;;;;;;;;;;;24.80;37.20;;;;;;5104178;28;19935;-81
2021/11/27 05:25:57;;;;;;;;;;;24.80;37.20;;;;;;5121343;28;19934;-83
2021/11/27 05:28:25;;;;;;;;;;;24.80;37.20;;;;;;5104544;28;19912;-82
2021/11/27 05:30:53;;;;;;;;;;;24.80;37.20;;;;;;5121245;28;20344;-83
2021/11/27 05:33:33;;;;;;;;;;;24.80;37.20;;;;;;5121137;28;20006;-82
2021/11/27 05:35:59;;;;;;;;;;;24.80;37.20;;;;;;5121383;28;20419;-82
2021/11/27 05:38:24;;;;;;;;;;;24.80;37.20;;;;;;5104018;28;19981;-82
2021/11/27 05:40:52;;;;;;;;;;;24.80;37.10;;;;;;5122071;28;20002;-81
2021/11/27 05:43:17;;;;;;;;;;;24.80;37.20;;;;;;5121298;28;19939;-80
2021/11/27 05:45:45;;;;;;;;;;;24.80;37.20;;;;;;5121922;28;20050;-78
2021/11/27 05:48:10;;;;;;;;;;;24.80;37.20;;;;;;5104203;28;19907;-79
2021/11/27 05:50:38;;;;;;;;;;;24.80;37.20;;;;;;5103848;28;20380;-79
2021/11/27 05:53:05;;;;;;;;;;;24.80;37.20;;;;;;5120813;28;19911;-82
2021/11/27 05:55:32;;;;;;;;;;;24.80;37.20;;;;;;5119496;28;19912;-83
2021/11/27 05:57:57;;;;;;;;;;;24.80;37.20;;;;;;5101016;28;20420;-80
2021/11/27 06:00:25;;;;;;;;;;;24.80;37.20;;;;;;5100892;28;19907;-84
2021/11/27 06:02:50;;;;;;;;;;;24.80;37.20;;;;;;5117804;28;19920;-81
2021/11/27 06:05:16;;;;;;;;;;;24.80;37.20;;;;;;5117924;28;19968;-82
2021/11/27 06:07:44;;;;;;;;;;;24.80;37.10;;;;;;5117560;28;19957;-83
2021/11/27 06:10:12;;;;;;;;;;;24.80;37.20;;;;;;5117648;28;19908;-82
2021/11/27 06:12:37;;;;;;;;;;;24.80;37.20;;;;;;5117573;28;19912;-81
2021/11/27 06:15:03;;;;;;;;;;;24.80;37.20;;;;;;5117651;28;20006;-79
2021/11/27 06:17:29;;;;;;;;;;;24.80;37.20;;;;;;5100447;28;19962;-83
2021/11/27 06:19:57;;;;;;;;;;;24.80;37.10;;;;;;5117593;28;19998;-81
2021/11/27 06:22:22;;;;;;;;;;;24.80;37.10;;;;;;5118503;28;19908;-85
2021/11/27 06:24:49;;;;;;;;;;;24.80;37.10;;;;;;5100600;28;20337;-82
2021/11/27 06:27:16;;;;;;;;;;;24.80;37.10;;;;;;5100329;28;19907;-82
2021/11/27 06:29:42;;;;;;;;;;;24.80;37.10;;;;;;5100700;28;20283;-80
2021/11/27 06:32:09;;;;;;;;;;;24.80;37.10;;;;;;5099965;28;20463;-81
2021/11/27 06:34:35;;;;;;;;;;;24.80;37.10;;;;;;5116885;28;20268;-83
2021/11/27 06:37:00;;;;;;;;;;;24.80;37.10;;;;;;5100314;28;19916;-78
2021/11/27 06:39:26;;;;;;;;;;;24.80;37.10;;;;;;5117198;28;19907;-80
2021/11/27 06:41:51;;;;;;;;;;;24.80;37.10;;;;;;5094711;28;19908;-84
2021/11/27 06:44:20;;;;;;;;;;;24.80;37.10;;;;;;5079555;28;19970;-83
2021/11/27 06:46:46;;;;;;;;;;;24.80;37.10;;;;;;5096550;28;19908;-79
2021/11/27 06:49:11;;;;;;;;;;;24.80;37.10;;;;;;5079420;28;19919;-78
2021/11/27 06:51:39;;;;;;;;;;;24.80;37.70;;;;;;5079502;28;20268;-81
2021/11/27 06:54:05;;;;;;;;;;;24.80;37.20;;;;;;5096356;28;19999;-83
2021/11/27 06:56:33;;;;;;;;;;;24.80;37.20;;;;;;5097366;28;20332;-83
2021/11/27 06:58:58;;;;;;;;;;;24.80;37.20;;;;;;5100757;28;19961;-83
2021/11/27 07:01:26;;;;;;;;;;;24.80;37.10;;;;;;5098292;28;19908;-81
2021/11/27 07:03:52;;;;;;;;;;;24.80;37.20;;;;;;5099686;28;19947;-81
2021/11/27 07:06:17;;;;;;;;;;;24.80;37.20;;;;;;5081794;28;19961;-81
2021/11/27 07:08:45;;;;;;;;;;;24.70;37.10;;;;;;5096018;28;19908;-80
2021/11/27 07:11:11;;;;;;;;;;;24.80;37.20;;;;;;5096158;28;19998;-84
2021/11/27 07:13:39;;;;;;;;;;;24.70;37.10;;;;;;5079310;28;19966;-83
2021/11/27 07:16:05;;;;;;;;;;;24.70;37.20;;;;;;5095820;28;19965;-79
2021/11/27 07:18:30;;;;;;;;;;;24.70;37.10;;;;;;5078904;28;19912;-79
2021/11/27 07:20:56;;;;;;;;;;;24.70;37.10;;;;;;5095936;28;20413;-81
2021/11/27 07:23:21;;;;;;;;;;;24.70;37.20;;;;;;5095967;28;20241;-81
2021/11/27 07:25:47;;;;;;;;;;;24.70;37.20;;;;;;5079180;28;19912;-83
2021/11/27 07:28:12;;;;;;;;;;;24.70;37.10;;;;;;5095736;28;19915;-81
2021/11/27 07:30:38;;;;;;;;;;;24.70;37.20;;;;;;5078888;28;19970;-82
2021/11/27 07:33:04;;;;;;;;;;;24.70;37.20;;;;;;5078499;28;20007;-80
2021/11/27 07:35:29;;;;;;;;;;;24.70;37.20;;;;;;5078588;28;19919;-81
2021/11/27 07:37:57;;;;;;;;;;;24.70;37.20;;;;;;5095344;28;19921;-80
2021/11/27 07:40:27;;;;;;;;;;;24.70;37.20;;;;;;5078819;28;19908;-82
2021/11/27 07:42:53;;;;;;;;;;;24.70;37.20;;;;;;5092743;28;20341;-82
2021/11/27 07:45:21;;;;;;;;;;;24.70;37.20;;;;;;5099080;28;19908;-80
2021/11/27 07:47:49;;;;;;;;;;;24.70;37.20;;;;;;5099381;28;19907;-80
2021/11/27 07:50:14;;;;;;;;;;;24.70;37.20;;;;;;5099151;28;19939;-79
2021/11/27 07:52:41;;;;;;;;;;;24.70;37.20;;;;;;5098787;28;20306;-80
2021/11/27 07:55:09;;;;;;;;;;;24.70;37.20;;;;;;5115606;28;19908;-80
2021/11/27 07:57:34;;;;;;;;;;;24.70;37.20;;;;;;5115763;28;19916;-79
2021/11/27 08:00:00;;;;;;;;;;;24.70;37.20;;;;;;5098654;28;19912;-79
2021/11/27 08:02:25;;;;;;;;;;;24.70;37.20;;;;;;5116401;28;19911;-83
2021/11/27 08:04:51;;;;;;;;;;;24.70;37.20;;;;;;5098944;28;19959;-81
2021/11/27 08:07:16;;;;;;;;;;;24.70;37.20;;;;;;5098540;28;19907;-82
2021/11/27 08:09:42;;;;;;;;;;;24.70;37.20;;;;;;5116251;28;19918;-84
2021/11/27 08:12:11;;;;;;;;;;;24.70;37.20;;;;;;5115649;28;19912;-81
2021/11/27 08:14:41;;;;;;;;;;;24.70;37.20;;;;;;5115333;28;19934;-80
2021/11/27 08:17:09;;;;;;;;;;;24.70;37.20;;;;;;5115301;28;20282;-80
2021/11/27 08:19:35;;;;;;;;;;;24.70;37.20;;;;;;5097857;28;20320;-81
2021/11/27 08:22:00;;;;;;;;;;;24.70;37.10;;;;;;5115819;28;19912;-85
2021/11/27 08:24:26;;;;;;;;;;;24.70;37.20;;;;;;5115590;28;20011;-82
2021/11/27 08:26:52;;;;;;;;;;;24.70;37.20;;;;;;5098770;28;19937;-79
2021/11/27 08:29:18;;;;;;;;;;;24.60;37.20;;;;;;5098090;28;19907;-80
2021/11/27 08:31:46;;;;;;;;;;;24.60;37.20;;;;;;5098247;28;19908;-83
2021/11/27 08:34:14;;;;;;;;;;;24.60;37.30;;;;;;5098331;28;19908;-82
2021/11/27 08:36:40;;;;;;;;;;;24.70;37.20;;;;;;5115891;28;19908;-82
2021/11/27 08:39:08;;;;;;;;;;;24.70;37.20;;;;;;5115199;28;19924;-79
2021/11/27 08:41:33;;;;;;;;;;;24.70;37.20;;;;;;5095648;28;20233;-83
2021/11/27 08:44:01;;;;;;;;;;;24.70;37.20;;;;;;5077815;28;19908;-81
2021/11/27 08:46:27;;;;;;;;;;;24.70;37.30;;;;;;5094652;28;19915;-83
2021/11/27 08:48:52;;;;;;;;;;;24.70;37.20;;;;;;5094539;28;20252;-81
2021/11/27 08:51:18;;;;;;;;;;;24.70;37.20;;;;;;5094715;28;20268;-80
2021/11/27 08:53:46;;;;;;;;;;;24.70;37.70;;;;;;5078014;28;19983;-80
2021/11/27 08:56:11;;;;;;;;;;;24.70;37.10;;;;;;5094798;28;20241;-81
2021/11/27 08:58:37;;;;;;;;;;;24.70;37.20;;;;;;5094385;28;20356;-80
2021/11/27 09:01:03;;;;;;;;;;;24.70;37.10;;;;;;5094347;28;19908;-81
2021/11/27 09:03:29;;;;;;;;;;;24.70;37.10;;;;;;5077835;28;19908;-87
2021/11/27 09:05:54;;;;;;;;;;;24.70;37.10;;;;;;5095126;28;19920;-79
2021/11/27 09:08:20;;;;;;;;;;;24.70;37.10;;;;;;5077460;28;20372;-79
2021/11/27 09:10:46;;;;;;;;;;;24.70;37.20;;;;;;5094307;28;20241;-80
2021/11/27 09:13:16;;;;;;;;;;;24.60;37.10;;;;;;5094440;28;19911;-79
2021/11/27 09:15:44;;;;;;;;;;;24.60;37.10;;;;;;5094490;28;19921;-80
2021/11/27 09:18:11;;;;;;;;;;;24.70;37.20;;;;;;5077540;28;20371;-82
2021/11/27 09:20:37;;;;;;;;;;;24.60;37.30;;;;;;5094556;28;19995;-79
2021/11/27 09:23:02;;;;;;;;;;;24.70;37.40;;;;;;5077203;28;19943;-79
2021/11/27 09:25:29;;;;;;;;;;;24.70;37.40;;;;;;5094395;28;19908;-79
2021/11/27 09:27:55;;;;;;;;;;;24.60;37.30;;;;;;5077614;28;20345;-80
2021/11/27 09:30:20;;;;;;;;;;;24.60;37.40;;;;;;5094453;28;19923;-81
2021/11/27 09:32:46;;;;;;;;;;;24.70;37.40;;;;;;5098716;28;19912;-83
2021/11/27 09:35:12;;;;;;;;;;;24.60;37.30;;;;;;5100083;28;19969;-80
2021/11/27 09:37:42;;;;;;;;;;;24.60;37.40;;;;;;5099727;28;20338;-81
2021/11/27 09:40:08;;;;;;;;;;;24.60;37.40;;;;;;5082730;28;19919;-82
2021/11/27 09:42:34;;;;;;;;;;;24.50;37.50;;;;;;5081998;28;19908;-83
2021/11/27 09:45:02;;;;;;;;;;;24.50;37.60;;;;;;5082671;28;20260;-79
2021/11/27 09:47:28;;;;;;;;;;;24.50;37.50;;;;;;5083336;28;19908;-79
2021/11/27 09:49:57;;;;;;;;;;;24.60;37.60;;;;;;5101952;28;19908;-78
2021/11/27 09:52:23;;;;;;;;;;;24.50;37.50;;;;;;5103077;28;19912;-80
2021/11/27 09:54:51;;;;;;;;;;;24.60;37.50;;;;;;5101967;28;20348;-81
2021/11/27 09:57:19;;;;;;;;;;;24.60;37.60;;;;;;5097759;28;19919;-79
2021/11/27 09:59:46;;;;;;;;;;;24.60;37.60;;;;;;5097741;28;19915;-83
2021/11/27 10:02:14;;;;;;;;;;;24.60;36.50;;;;;;5097602;28;19912;-80
2021/11/27 10:04:48;;;;;;;;;;;24.40;34.40;;;;;;5097891;28;20307;-80
2021/11/27 10:07:13;;;;;;;;;;;24.20;36.60;;;;;;5097549;28;19908;-81
2021/11/27 10:09:39;;;;;;;;;;;24.20;37.30;;;;;;5085690;28;19919;-81
2021/11/27 10:12:07;;;;;;;;;;;24.20;37.70;;;;;;5086422;28;19919;-79
2021/11/27 10:14:34;;;;;;;;;;;24.20;37.90;;;;;;5081934;28;19919;-84
2021/11/27 10:17:04;;;;;;;;;;;24.20;38.20;;;;;;5084128;28;20341;-80
2021/11/27 10:19:50;;;;;;;;;;;24.20;38.60;;;;;;5103164;28;19961;-81
2021/11/27 10:22:17;;;;;;;;;;;24.20;38.90;;;;;;5097631;28;19926;-82
2021/11/27 10:24:46;;;;;;;;;;;24.20;39.10;;;;;;5083121;28;19914;-82
2021/11/27 10:27:25;;;;;;;;;;;24.20;39.30;;;;;;5097420;28;19919;-80
2021/11/27 10:30:11;;;;;;;;;;;24.30;39.30;;;;;;5080293;28;19912;-83
2021/11/27 10:32:38;;;;;;;;;;;24.30;39.30;;;;;;5097030;28;19966;-80
2021/11/27 10:35:05;;;;;;;;;;;24.30;39.30;;;;;;5096945;28;19938;-80
2021/11/27 10:37:34;;;;;;;;;;;24.30;39.40;;;;;;5097178;28;19924;-83
2021/11/27 10:40:05;;;;;;;;;;;24.30;39.60;;;;;;5096954;28;19948;-82
2021/11/27 10:42:33;;;;;;;;;;;24.40;39.80;;;;;;5107266;28;19911;-78
2021/11/27 10:45:20;;;;;;;;;;;24.30;39.70;;;;;;5117095;28;19907;-81
2021/11/27 10:47:46;;;;;;;;;;;24.40;39.90;;;;;;5118222;28;19955;-81
2021/11/27 10:50:17;;;;;;;;;;;24.40;39.90;;;;;;5118063;28;19908;-81
2021/11/27 10:52:46;;;;;;;;;;;24.30;40.00;;;;;;5101428;28;19919;-79
2021/11/27 10:55:17;;;;;;;;;;;24.40;39.90;;;;;;5117794;28;19912;-82
2021/11/27 10:57:43;;;;;;;;;;;24.40;39.90;;;;;;5118615;28;20248;-80
2021/11/27 11:00:10;;;;;;;;;;;24.40;39.90;;;;;;5101372;28;19935;-80
2021/11/27 11:02:38;;;;;;;;;;;24.40;40.00;;;;;;5121949;28;19908;-80
2021/11/27 11:05:11;;;;;;;;;;;24.40;40.00;;;;;;5125220;28;20395;-79
2021/11/27 11:07:37;;;;;;;;;;;24.50;40.00;;;;;;5106453;28;19907;-82
2021/11/27 11:10:09;;;;;;;;;;;24.50;40.00;;;;;;5117024;28;19908;-83
2021/11/27 11:12:39;;;;;;;;;;;24.50;39.90;;;;;;5116813;28;19919;-78
2021/11/27 11:15:13;;;;;;;;;;;24.50;40.00;;;;;;5099664;28;19919;-84
2021/11/27 11:17:41;;;;;;;;;;;24.60;40.10;;;;;;5099869;28;19919;-83
2021/11/27 11:20:13;;;;;;;;;;;24.50;40.20;;;;;;5099989;28;19912;-85
2021/11/27 11:22:41;;;;;;;;;;;24.50;40.40;;;;;;5116202;28;19918;-86
2021/11/27 11:25:10;;;;;;;;;;;24.50;40.40;;;;;;5099435;28;19908;-82
2021/11/27 11:27:36;;;;;;;;;;;24.50;40.10;;;;;;5099683;28;19908;-82
2021/11/27 11:30:04;;;;;;;;;;;24.60;39.90;;;;;;5099262;28;19922;-82
2021/11/27 11:32:29;;;;;;;;;;;24.60;39.70;;;;;;5099553;28;19923;-83
2021/11/27 11:34:56;;;;;;;;;;;24.60;40.20;;;;;;5099645;28;19908;-82
2021/11/27 11:37:22;;;;;;;;;;;24.50;39.40;;;;;;5099055;28;19992;-79
2021/11/27 11:39:47;;;;;;;;;;;24.50;39.40;;;;;;5099032;28;20333;-85
2021/11/27 11:42:17;;;;;;;;;;;24.50;39.40;;;;;;5098975;28;19950;-81
2021/11/27 11:44:46;;;;;;;;;;;24.50;39.30;;;;;;5099283;28;20328;-84
2021/11/27 11:47:14;;;;;;;;;;;24.50;39.30;;;;;;5100020;28;19911;-81
2021/11/27 11:49:39;;;;;;;;;;;24.50;39.30;;;;;;5099267;28;19955;-84
2021/11/27 11:52:05;;;;;;;;;;;24.50;39.20;;;;;;5118186;28;19945;-81
2021/11/27 11:54:35;;;;;;;;;;;24.50;39.20;;;;;;5116926;28;19964;-82
2021/11/27 11:57:05;;;;;;;;;;;24.50;39.20;;;;;;5099177;28;20241;-80
2021/11/27 11:59:32;;;;;;;;;;;24.50;39.20;;;;;;5098897;28;19927;-83
2021/11/27 12:02:22;;;;;;;;;;;24.40;39.20;;;;;;5116350;28;19919;-82
2021/11/27 12:04:57;;;;;;;;;;;24.50;39.40;;;;;;5099809;28;19915;-84
2021/11/27 12:07:47;;;;;;;;;;;24.40;39.60;;;;;;5116467;28;19908;-82
2021/11/27 12:10:18;;;;;;;;;;;24.40;39.90;;;;;;5117399;28;19933;-85
2021/11/27 12:12:44;;;;;;;;;;;24.40;40.10;;;;;;5120181;28;20298;-84
2021/11/27 12:15:10;;;;;;;;;;;24.40;40.10;;;;;;5126834;28;19922;-81
2021/11/27 12:18:02;;;;;;;;;;;24.40;40.10;;;;;;5105538;28;19915;-80
2021/11/27 12:20:42;;;;;;;;;;;24.40;40.30;;;;;;5117644;28;19919;-84
2021/11/27 12:23:34;;;;;;;;;;;24.50;40.30;;;;;;5120273;28;19915;-81
2021/11/27 12:26:06;;;;;;;;;;;24.50;40.40;;;;;;5115885;28;19998;-83
2021/11/27 12:28:34;;;;;;;;;;;24.50;40.50;;;;;;5115520;28;20340;-82
2021/11/27 12:31:09;;;;;;;;;;;24.50;40.60;;;;;;5115504;28;19908;-80
2021/11/27 12:33:42;;;;;;;;;;;24.50;40.70;;;;;;5098902;28;20279;-82
2021/11/27 12:36:22;;;;;;;;;;;24.50;40.60;;;;;;5098289;28;20275;-84
2021/11/27 12:38:55;;;;;;;;;;;24.50;40.40;;;;;;5098485;28;19919;-85
2021/11/27 12:41:25;;;;;;;;;;;24.40;40.30;;;;;;5114406;28;19911;-78
2021/11/27 12:44:09;;;;;;;;;;;20.80;32.30;;;;;;5094925;28;19965;-78
2021/11/27 12:46:34;;;;;;;;;;;18.60;37.40;;;;;;5095750;28;19908;-81
2021/11/27 12:49:02;;;;;;;;;;;19.50;38.90;;;;;;5078573;28;19915;-83
2021/11/27 12:51:28;;;;;;;;;;;20.60;38.20;;;;;;5094725;28;19908;-78
2021/11/27 12:53:59;;;;;;;;;;;21.40;37.20;;;;;;5077893;28;19976;-80
2021/11/27 12:56:25;;;;;;;;;;;22.10;36.60;;;;;;5095514;28;19908;-80
2021/11/27 12:58:53;;;;;;;;;;;22.70;36.20;;;;;;5078345;28;19926;-82
2021/11/27 13:01:29;;;;;;;;;;;23.00;35.90;;;;;;5078044;28;19908;-81
2021/11/27 13:03:54;;;;;;;;;;;23.30;35.60;;;;;;5094763;28;19939;-78
2021/11/27 13:06:22;;;;;;;;;;;23.50;35.40;;;;;;5098972;28;19962;-79
2021/11/27 13:08:50;;;;;;;;;;;23.60;35.50;;;;;;5082222;28;19908;-79
2021/11/27 13:11:20;;;;;;;;;;;23.80;35.40;;;;;;5098580;28;19908;-82
2021/11/27 13:13:49;;;;;;;;;;;23.70;35.70;;;;;;5098870;28;19978;-83
2021/11/27 13:16:18;;;;;;;;;;;23.90;35.80;;;;;;5082161;28;19994;-86
2021/11/27 13:18:46;;;;;;;;;;;23.90;36.00;;;;;;5098867;28;19922;-84
2021/11/27 13:21:14;;;;;;;;;;;24.00;36.40;;;;;;5082219;28;19916;-79
2021/11/27 13:23:41;;;;;;;;;;;24.10;36.40;;;;;;5098719;28;19916;-85
2021/11/27 13:26:13;;;;;;;;;;;24.10;36.40;;;;;;5081958;28;19955;-83
2021/11/27 13:28:46;;;;;;;;;;;24.20;36.30;;;;;;5098577;28;20394;-82
2021/11/27 13:31:30;;;;;;;;;;;24.20;36.60;;;;;;5082383;28;19912;-85
2021/11/27 13:33:57;;;;;;;;;;;24.10;33.80;;;;;;5098316;28;19973;-84
2021/11/27 13:36:29;;;;;;;;;;;23.80;34.70;;;;;;5099502;28;19919;-87
2021/11/27 13:39:08;;;;;;;;;;;23.70;33.30;;;;;;5098475;28;20015;-83
2021/11/27 13:41:34;;;;;;;;;;;23.50;33.10;;;;;;5084086;28;19970;-81
2021/11/27 13:43:59;;;;;;;;;;;23.50;34.20;;;;;;5118510;28;19908;-82
2021/11/27 13:46:25;;;;;;;;;;;23.40;32.80;;;;;;5090528;28;20002;-85
2021/11/27 13:48:50;;;;;;;;;;;23.30;32.20;;;;;;5098405;28;20336;-80
2021/11/27 13:51:23;;;;;;;;;;;23.20;30.80;;;;;;5097737;28;19908;-80
2021/11/27 13:53:49;;;;;;;;;;;23.00;30.90;;;;;;5097661;28;20333;-81
2021/11/27 13:56:16;;;;;;;;;;;22.90;30.90;;;;;;5097701;28;19908;-82
2021/11/27 13:58:51;;;;;;;;;;;22.80;31.50;;;;;;5081344;28;19908;-80
2021/11/27 14:01:16;;;;;;;;;;;22.90;33.90;;;;;;5080968;28;19916;-78
2021/11/27 14:03:43;;;;;;;;;;;23.00;34.20;;;;;;5097868;28;20289;-82
2021/11/27 14:06:10;;;;;;;;;;;23.20;34.40;;;;;;5097414;28;19965;-81
2021/11/27 14:08:36;;;;;;;;;;;23.40;34.50;;;;;;5097426;28;19944;-80
2021/11/27 14:11:12;;;;;;;;;;;23.50;34.90;;;;;;5080732;28;19999;-80
2021/11/27 14:13:40;;;;;;;;;;;23.60;35.00;;;;;;5097337;28;20273;-81
2021/11/27 14:16:26;;;;;;;;;;;23.70;35.00;;;;;;5080970;28;20487;-83
2021/11/27 14:19:05;;;;;;;;;;;23.70;35.20;;;;;;5097845;28;19911;-82